sensor_id;sensor_type;location;lat;lon;timestamp;P1;durP1;ratioP1;P2;durP2;ratioP2
1685;SDS011;840;47.980;7.830;2023-01-28T00:02:12;12.50;;;10.60;;
1685;SDS011;840;47.980;7.830;2023-01-28T00:04:55;13.90;;;10.70;;
1685;SDS011;840;47.980;7.830;2023-01-28T00:07:25;12.93;;;10.37;;
1685;SDS011;840;47.980;7.830;2023-01-28T00:09:58;16.70;;;11.93;;
1685;SDS011;840;47.980;7.830;2023-01-28T00:12:28;12.90;;;10.80;;
1685;SDS011;840;47.980;7.830;2023-01-28T00:14:56;12.77;;;9.93;;
1685;SDS011;840;47.980;7.830;2023-01-28T00:17:28;12.60;;;9.57;;
1685;SDS011;840;47.980;7.830;2023-01-28T00:20:09;12.90;;;10.37;;
1685;SDS011;840;47.980;7.830;2023-01-28T00:22:46;14.60;;;10.70;;
1685;SDS011;840;47.980;7.830;2023-01-28T00:25:16;14.53;;;10.67;;
1685;SDS011;840;47.980;7.830;2023-01-28T00:27:51;13.43;;;11.00;;
1685;SDS011;840;47.980;7.830;2023-01-28T00:30:21;11.77;;;10.27;;
1685;SDS011;840;47.980;7.830;2023-01-28T00:33:06;14.47;;;10.17;;
1685;SDS011;840;47.980;7.830;2023-01-28T00:35:56;11.63;;;10.43;;
1685;SDS011;840;47.980;7.830;2023-01-28T00:38:41;15.97;;;10.33;;
1685;SDS011;840;47.980;7.830;2023-01-28T00:41:39;13.10;;;10.27;;
1685;SDS011;840;47.980;7.830;2023-01-28T00:44:11;14.10;;;10.83;;
1685;SDS011;840;47.980;7.830;2023-01-28T00:46:40;12.47;;;10.07;;
1685;SDS011;840;47.980;7.830;2023-01-28T00:49:07;15.37;;;10.80;;
1685;SDS011;840;47.980;7.830;2023-01-28T00:51:52;13.53;;;10.70;;
1685;SDS011;840;47.980;7.830;2023-01-28T00:54:28;13.00;;;9.43;;
1685;SDS011;840;47.980;7.830;2023-01-28T00:56:59;17.40;;;11.20;;
1685;SDS011;840;47.980;7.830;2023-01-28T00:59:45;15.43;;;9.07;;
1685;SDS011;840;47.980;7.830;2023-01-28T01:02:16;13.27;;;10.33;;
1685;SDS011;840;47.980;7.830;2023-01-28T01:04:45;12.83;;;11.53;;
1685;SDS011;840;47.980;7.830;2023-01-28T01:07:29;13.03;;;10.93;;
1685;SDS011;840;47.980;7.830;2023-01-28T01:10:09;11.50;;;9.00;;
1685;SDS011;840;47.980;7.830;2023-01-28T01:12:42;12.87;;;9.47;;
1685;SDS011;840;47.980;7.830;2023-01-28T01:15:13;14.50;;;10.20;;
1685;SDS011;840;47.980;7.830;2023-01-28T01:24:29;13.70;;;9.87;;
1685;SDS011;840;47.980;7.830;2023-01-28T01:27:01;13.63;;;10.70;;
1685;SDS011;840;47.980;7.830;2023-01-28T01:29:41;13.63;;;10.77;;
1685;SDS011;840;47.980;7.830;2023-01-28T01:32:19;14.60;;;10.10;;
1685;SDS011;840;47.980;7.830;2023-01-28T01:37:53;14.80;;;11.40;;
1685;SDS011;840;47.980;7.830;2023-01-28T01:40:37;12.87;;;11.13;;
1685;SDS011;840;47.980;7.830;2023-01-28T01:46:22;12.40;;;10.47;;
1685;SDS011;840;47.980;7.830;2023-01-28T01:49:21;12.10;;;8.70;;
1685;SDS011;840;47.980;7.830;2023-01-28T01:52:06;10.83;;;9.13;;
1685;SDS011;840;47.980;7.830;2023-01-28T01:58:30;13.53;;;9.43;;
1685;SDS011;840;47.980;7.830;2023-01-28T02:01:44;13.73;;;10.43;;
1685;SDS011;840;47.980;7.830;2023-01-28T02:10:20;13.30;;;9.07;;
1685;SDS011;840;47.980;7.830;2023-01-28T02:13:08;12.23;;;9.80;;
1685;SDS011;840;47.980;7.830;2023-01-28T02:15:53;13.20;;;9.57;;
1685;SDS011;840;47.980;7.830;2023-01-28T02:18:34;9.00;;;8.10;;
1685;SDS011;840;47.980;7.830;2023-01-28T02:21:14;10.20;;;8.67;;
1685;SDS011;840;47.980;7.830;2023-01-28T02:27:32;11.17;;;8.53;;
1685;SDS011;840;47.980;7.830;2023-01-28T02:30:16;10.57;;;7.87;;
1685;SDS011;840;47.980;7.830;2023-01-28T02:33:04;9.97;;;8.97;;
1685;SDS011;840;47.980;7.830;2023-01-28T02:38:33;9.77;;;8.77;;
1685;SDS011;840;47.980;7.830;2023-01-28T02:41:24;9.50;;;8.50;;
1685;SDS011;840;47.980;7.830;2023-01-28T02:44:00;14.33;;;9.50;;
1685;SDS011;840;47.980;7.830;2023-01-28T02:46:42;10.37;;;8.80;;
1685;SDS011;840;47.980;7.830;2023-01-28T02:49:38;14.27;;;9.47;;
1685;SDS011;840;47.980;7.830;2023-01-28T02:52:29;9.40;;;8.00;;
1685;SDS011;840;47.980;7.830;2023-01-28T02:55:24;10.80;;;8.83;;
1685;SDS011;840;47.980;7.830;2023-01-28T02:58:17;10.73;;;8.63;;
1685;SDS011;840;47.980;7.830;2023-01-28T03:01:21;12.30;;;9.13;;
1685;SDS011;840;47.980;7.830;2023-01-28T03:08:01;11.87;;;10.17;;
1685;SDS011;840;47.980;7.830;2023-01-28T03:10:53;14.70;;;8.93;;
1685;SDS011;840;47.980;7.830;2023-01-28T03:13:40;9.47;;;8.30;;
1685;SDS011;840;47.980;7.830;2023-01-28T03:16:27;10.90;;;9.00;;
1685;SDS011;840;47.980;7.830;2023-01-28T03:19:14;11.43;;;9.87;;
1685;SDS011;840;47.980;7.830;2023-01-28T03:22:03;9.93;;;8.47;;
1685;SDS011;840;47.980;7.830;2023-01-28T03:27:57;8.40;;;7.30;;
1685;SDS011;840;47.980;7.830;2023-01-28T03:30:46;13.80;;;10.33;;
1685;SDS011;840;47.980;7.830;2023-01-28T03:33:37;12.80;;;10.83;;
1685;SDS011;840;47.980;7.830;2023-01-28T03:36:29;11.93;;;8.37;;
1685;SDS011;840;47.980;7.830;2023-01-28T03:39:20;11.67;;;8.97;;
1685;SDS011;840;47.980;7.830;2023-01-28T03:42:05;13.03;;;9.50;;
1685;SDS011;840;47.980;7.830;2023-01-28T03:44:35;11.90;;;9.63;;
1685;SDS011;840;47.980;7.830;2023-01-28T03:47:23;11.67;;;7.90;;
1685;SDS011;840;47.980;7.830;2023-01-28T03:49:59;11.20;;;9.50;;
1685;SDS011;840;47.980;7.830;2023-01-28T03:52:31;11.57;;;9.43;;
1685;SDS011;840;47.980;7.830;2023-01-28T03:55:02;11.43;;;9.13;;
1685;SDS011;840;47.980;7.830;2023-01-28T03:57:41;11.90;;;9.27;;
1685;SDS011;840;47.980;7.830;2023-01-28T04:00:22;10.97;;;8.50;;
1685;SDS011;840;47.980;7.830;2023-01-28T04:02:49;12.90;;;9.80;;
1685;SDS011;840;47.980;7.830;2023-01-28T04:05:25;11.83;;;8.80;;
1685;SDS011;840;47.980;7.830;2023-01-28T04:08:05;9.77;;;7.73;;
1685;SDS011;840;47.980;7.830;2023-01-28T04:10:42;13.20;;;9.03;;
1685;SDS011;840;47.980;7.830;2023-01-28T04:16:03;10.50;;;8.70;;
1685;SDS011;840;47.980;7.830;2023-01-28T04:18:37;11.67;;;7.67;;
1685;SDS011;840;47.980;7.830;2023-01-28T04:21:04;10.47;;;8.10;;
1685;SDS011;840;47.980;7.830;2023-01-28T04:23:39;12.90;;;10.23;;
1685;SDS011;840;47.980;7.830;2023-01-28T04:26:11;9.23;;;8.27;;
1685;SDS011;840;47.980;7.830;2023-01-28T04:29:02;8.80;;;7.03;;
1685;SDS011;840;47.980;7.830;2023-01-28T04:31:34;9.10;;;8.20;;
1685;SDS011;840;47.980;7.830;2023-01-28T04:34:05;9.40;;;8.53;;
1685;SDS011;840;47.980;7.830;2023-01-28T04:36:47;9.40;;;8.50;;
1685;SDS011;840;47.980;7.830;2023-01-28T04:39:49;8.80;;;7.90;;
1685;SDS011;840;47.980;7.830;2023-01-28T04:42:18;10.23;;;7.13;;
1685;SDS011;840;47.980;7.830;2023-01-28T04:44:48;8.93;;;8.07;;
1685;SDS011;840;47.980;7.830;2023-01-28T04:47:20;7.47;;;6.77;;
1685;SDS011;840;47.980;7.830;2023-01-28T04:49:59;12.60;;;8.00;;
1685;SDS011;840;47.980;7.830;2023-01-28T04:52:40;10.37;;;8.67;;
1685;SDS011;840;47.980;7.830;2023-01-28T04:55:12;7.97;;;7.17;;
1685;SDS011;840;47.980;7.830;2023-01-28T04:58:01;15.23;;;8.70;;
1685;SDS011;840;47.980;7.830;2023-01-28T05:00:36;8.83;;;7.90;;
1685;SDS011;840;47.980;7.830;2023-01-28T05:03:06;10.70;;;7.30;;
1685;SDS011;840;47.980;7.830;2023-01-28T05:05:42;8.33;;;7.47;;
1685;SDS011;840;47.980;7.830;2023-01-28T05:08:25;9.37;;;7.77;;
1685;SDS011;840;47.980;7.830;2023-01-28T05:10:58;9.10;;;8.20;;
1685;SDS011;840;47.980;7.830;2023-01-28T05:13:26;10.23;;;6.97;;
1685;SDS011;840;47.980;7.830;2023-01-28T05:15:57;8.50;;;6.90;;
1685;SDS011;840;47.980;7.830;2023-01-28T05:18:26;7.97;;;7.10;;
1685;SDS011;840;47.980;7.830;2023-01-28T05:20:58;11.10;;;8.67;;
1685;SDS011;840;47.980;7.830;2023-01-28T05:23:26;10.80;;;9.10;;
1685;SDS011;840;47.980;7.830;2023-01-28T05:26:00;9.47;;;8.30;;
1685;SDS011;840;47.980;7.830;2023-01-28T05:28:35;8.67;;;7.43;;
1685;SDS011;840;47.980;7.830;2023-01-28T05:31:15;9.60;;;8.63;;
1685;SDS011;840;47.980;7.830;2023-01-28T05:34:02;9.40;;;7.63;;
1685;SDS011;840;47.980;7.830;2023-01-28T05:36:47;10.03;;;8.90;;
1685;SDS011;840;47.980;7.830;2023-01-28T05:39:20;10.27;;;9.27;;
1685;SDS011;840;47.980;7.830;2023-01-28T05:41:47;12.10;;;8.70;;
1685;SDS011;840;47.980;7.830;2023-01-28T05:44:16;9.10;;;7.90;;
1685;SDS011;840;47.980;7.830;2023-01-28T05:46:47;10.80;;;7.70;;
1685;SDS011;840;47.980;7.830;2023-01-28T05:49:14;8.77;;;7.33;;
1685;SDS011;840;47.980;7.830;2023-01-28T05:51:42;10.90;;;8.90;;
1685;SDS011;840;47.980;7.830;2023-01-28T05:54:13;10.80;;;9.13;;
1685;SDS011;840;47.980;7.830;2023-01-28T05:56:40;10.43;;;7.90;;
1685;SDS011;840;47.980;7.830;2023-01-28T05:59:10;9.30;;;7.33;;
1685;SDS011;840;47.980;7.830;2023-01-28T06:01:41;9.13;;;7.13;;
1685;SDS011;840;47.980;7.830;2023-01-28T06:07:31;7.37;;;6.13;;
1685;SDS011;840;47.980;7.830;2023-01-28T06:10:03;6.77;;;6.03;;
1685;SDS011;840;47.980;7.830;2023-01-28T06:12:35;10.53;;;6.70;;
1685;SDS011;840;47.980;7.830;2023-01-28T06:15:03;8.33;;;6.90;;
1685;SDS011;840;47.980;7.830;2023-01-28T06:17:35;10.50;;;7.00;;
1685;SDS011;840;47.980;7.830;2023-01-28T06:20:05;9.77;;;6.90;;
1685;SDS011;840;47.980;7.830;2023-01-28T06:22:36;9.87;;;7.30;;
1685;SDS011;840;47.980;7.830;2023-01-28T06:25:04;8.23;;;6.23;;
1685;SDS011;840;47.980;7.830;2023-01-28T06:27:34;7.90;;;7.20;;
1685;SDS011;840;47.980;7.830;2023-01-28T06:30:02;7.10;;;6.40;;
1685;SDS011;840;47.980;7.830;2023-01-28T06:35:46;8.03;;;5.90;;
1685;SDS011;840;47.980;7.830;2023-01-28T06:38:37;9.40;;;7.53;;
1685;SDS011;840;47.980;7.830;2023-01-28T06:41:14;9.57;;;8.40;;
1685;SDS011;840;47.980;7.830;2023-01-28T06:43:42;7.00;;;6.30;;
1685;SDS011;840;47.980;7.830;2023-01-28T06:46:30;6.37;;;5.60;;
1685;SDS011;840;47.980;7.830;2023-01-28T06:49:13;11.03;;;7.07;;
1685;SDS011;840;47.980;7.830;2023-01-28T06:51:45;10.07;;;8.23;;
1685;SDS011;840;47.980;7.830;2023-01-28T06:54:26;10.13;;;6.77;;
1685;SDS011;840;47.980;7.830;2023-01-28T06:56:55;7.90;;;6.23;;
1685;SDS011;840;47.980;7.830;2023-01-28T06:59:23;7.40;;;5.77;;
1685;SDS011;840;47.980;7.830;2023-01-28T07:01:51;7.93;;;6.95;;
1685;SDS011;840;47.980;7.830;2023-01-28T07:04:18;6.43;;;5.70;;
1685;SDS011;840;47.980;7.830;2023-01-28T07:06:45;7.90;;;5.43;;
1685;SDS011;840;47.980;7.830;2023-01-28T07:09:13;7.83;;;6.40;;
1685;SDS011;840;47.980;7.830;2023-01-28T07:11:47;7.70;;;6.33;;
1685;SDS011;840;47.980;7.830;2023-01-28T07:14:17;6.97;;;6.27;;
1685;SDS011;840;47.980;7.830;2023-01-28T07:16:45;6.30;;;5.73;;
1685;SDS011;840;47.980;7.830;2023-01-28T07:19:15;7.87;;;6.33;;
1685;SDS011;840;47.980;7.830;2023-01-28T07:21:45;8.33;;;6.67;;
1685;SDS011;840;47.980;7.830;2023-01-28T07:24:23;7.80;;;5.50;;
1685;SDS011;840;47.980;7.830;2023-01-28T07:29:40;7.40;;;5.90;;
1685;SDS011;840;47.980;7.830;2023-01-28T07:32:10;7.20;;;6.10;;
1685;SDS011;840;47.980;7.830;2023-01-28T07:34:39;7.97;;;5.70;;
1685;SDS011;840;47.980;7.830;2023-01-28T07:37:10;7.70;;;6.50;;
1685;SDS011;840;47.980;7.830;2023-01-28T07:39:38;6.37;;;5.80;;
1685;SDS011;840;47.980;7.830;2023-01-28T07:42:06;5.50;;;4.70;;
1685;SDS011;840;47.980;7.830;2023-01-28T07:44:36;7.67;;;5.97;;
1685;SDS011;840;47.980;7.830;2023-01-28T07:47:04;12.93;;;6.53;;
1685;SDS011;840;47.980;7.830;2023-01-28T07:49:31;8.43;;;5.90;;
1685;SDS011;840;47.980;7.830;2023-01-28T07:51:59;6.30;;;5.67;;
1685;SDS011;840;47.980;7.830;2023-01-28T07:54:27;7.63;;;6.77;;
1685;SDS011;840;47.980;7.830;2023-01-28T07:56:57;7.40;;;5.53;;
1685;SDS011;840;47.980;7.830;2023-01-28T07:59:24;6.50;;;5.07;;
1685;SDS011;840;47.980;7.830;2023-01-28T08:01:56;6.33;;;5.70;;
1685;SDS011;840;47.980;7.830;2023-01-28T08:04:25;6.97;;;5.30;;
1685;SDS011;840;47.980;7.830;2023-01-28T08:06:53;3.57;;;3.23;;
1685;SDS011;840;47.980;7.830;2023-01-28T08:09:21;3.27;;;3.00;;
1685;SDS011;840;47.980;7.830;2023-01-28T08:11:48;3.80;;;3.17;;
1685;SDS011;840;47.980;7.830;2023-01-28T08:14:14;3.27;;;2.40;;
1685;SDS011;840;47.980;7.830;2023-01-28T08:16:43;4.23;;;2.80;;
1685;SDS011;840;47.980;7.830;2023-01-28T08:19:12;3.20;;;2.60;;
1685;SDS011;840;47.980;7.830;2023-01-28T08:21:39;2.70;;;2.50;;
1685;SDS011;840;47.980;7.830;2023-01-28T08:24:09;3.53;;;3.07;;
1685;SDS011;840;47.980;7.830;2023-01-28T08:26:36;2.37;;;2.17;;
1685;SDS011;840;47.980;7.830;2023-01-28T08:29:03;4.87;;;3.30;;
1685;SDS011;840;47.980;7.830;2023-01-28T08:31:32;2.33;;;2.20;;
1685;SDS011;840;47.980;7.830;2023-01-28T08:33:59;3.43;;;3.13;;
1685;SDS011;840;47.980;7.830;2023-01-28T08:36:27;3.60;;;2.83;;
1685;SDS011;840;47.980;7.830;2023-01-28T08:38:56;3.53;;;2.70;;
1685;SDS011;840;47.980;7.830;2023-01-28T08:41:24;4.87;;;4.40;;
1685;SDS011;840;47.980;7.830;2023-01-28T08:43:52;5.10;;;3.80;;
1685;SDS011;840;47.980;7.830;2023-01-28T08:46:20;5.60;;;4.20;;
1685;SDS011;840;47.980;7.830;2023-01-28T08:48:50;5.30;;;4.20;;
1685;SDS011;840;47.980;7.830;2023-01-28T08:51:18;5.30;;;4.17;;
1685;SDS011;840;47.980;7.830;2023-01-28T08:54:03;4.27;;;3.80;;
1685;SDS011;840;47.980;7.830;2023-01-28T08:56:33;3.23;;;2.67;;
1685;SDS011;840;47.980;7.830;2023-01-28T08:59:01;2.17;;;2.07;;
1685;SDS011;840;47.980;7.830;2023-01-28T09:01:30;1.77;;;1.60;;
1685;SDS011;840;47.980;7.830;2023-01-28T09:04:00;2.87;;;2.57;;
1685;SDS011;840;47.980;7.830;2023-01-28T09:06:28;2.67;;;2.47;;
1685;SDS011;840;47.980;7.830;2023-01-28T09:09:10;3.27;;;2.97;;
1685;SDS011;840;47.980;7.830;2023-01-28T09:11:42;3.00;;;2.80;;
1685;SDS011;840;47.980;7.830;2023-01-28T09:14:13;2.73;;;2.53;;
1685;SDS011;840;47.980;7.830;2023-01-28T09:16:59;4.13;;;2.90;;
1685;SDS011;840;47.980;7.830;2023-01-28T09:36:20;3.27;;;2.90;;
1685;SDS011;840;47.980;7.830;2023-01-28T09:38:51;4.97;;;2.90;;
1685;SDS011;840;47.980;7.830;2023-01-28T09:41:35;4.80;;;2.70;;
1685;SDS011;840;47.980;7.830;2023-01-28T09:44:24;3.70;;;2.93;;
1685;SDS011;840;47.980;7.830;2023-01-28T09:47:21;3.13;;;2.83;;
1685;SDS011;840;47.980;7.830;2023-01-28T09:49:57;3.10;;;2.77;;
1685;SDS011;840;47.980;7.830;2023-01-28T09:52:43;2.93;;;2.30;;
1685;SDS011;840;47.980;7.830;2023-01-28T09:55:15;4.03;;;2.77;;
1685;SDS011;840;47.980;7.830;2023-01-28T09:57:58;2.80;;;2.57;;
1685;SDS011;840;47.980;7.830;2023-01-28T10:00:32;3.57;;;2.70;;
1685;SDS011;840;47.980;7.830;2023-01-28T10:06:20;3.37;;;2.80;;
1685;SDS011;840;47.980;7.830;2023-01-28T10:09:16;3.20;;;2.00;;
1685;SDS011;840;47.980;7.830;2023-01-28T10:12:00;5.57;;;4.10;;
1685;SDS011;840;47.980;7.830;2023-01-28T10:14:56;2.70;;;2.50;;
1685;SDS011;840;47.980;7.830;2023-01-28T10:17:45;3.20;;;2.80;;
1685;SDS011;840;47.980;7.830;2023-01-28T10:20:22;3.67;;;3.00;;
1685;SDS011;840;47.980;7.830;2023-01-28T10:23:10;3.03;;;2.70;;
1685;SDS011;840;47.980;7.830;2023-01-28T10:25:44;3.23;;;2.93;;
1685;SDS011;840;47.980;7.830;2023-01-28T10:28:17;3.73;;;3.10;;
1685;SDS011;840;47.980;7.830;2023-01-28T10:31:07;2.60;;;2.40;;
1685;SDS011;840;47.980;7.830;2023-01-28T10:33:53;3.33;;;2.93;;
1685;SDS011;840;47.980;7.830;2023-01-28T10:36:24;4.20;;;3.23;;
1685;SDS011;840;47.980;7.830;2023-01-28T10:38:56;2.67;;;2.47;;
1685;SDS011;840;47.980;7.830;2023-01-28T10:41:30;3.00;;;2.80;;
1685;SDS011;840;47.980;7.830;2023-01-28T10:43:58;2.83;;;2.60;;
1685;SDS011;840;47.980;7.830;2023-01-28T10:47:09;2.97;;;2.70;;
1685;SDS011;840;47.980;7.830;2023-01-28T10:49:45;3.00;;;2.70;;
1685;SDS011;840;47.980;7.830;2023-01-28T10:52:39;2.30;;;2.10;;
1685;SDS011;840;47.980;7.830;2023-01-28T10:55:22;4.63;;;3.27;;
1685;SDS011;840;47.980;7.830;2023-01-28T10:58:02;3.23;;;2.93;;
1685;SDS011;840;47.980;7.830;2023-01-28T11:03:34;3.97;;;3.67;;
1685;SDS011;840;47.980;7.830;2023-01-28T11:06:17;3.30;;;2.97;;
1685;SDS011;840;47.980;7.830;2023-01-28T11:08:52;4.40;;;3.27;;
1685;SDS011;840;47.980;7.830;2023-01-28T11:11:22;3.83;;;2.60;;
1685;SDS011;840;47.980;7.830;2023-01-28T11:13:53;3.30;;;3.10;;
1685;SDS011;840;47.980;7.830;2023-01-28T11:16:23;3.47;;;3.17;;
1685;SDS011;840;47.980;7.830;2023-01-28T11:18:52;4.37;;;3.97;;
1685;SDS011;840;47.980;7.830;2023-01-28T11:21:26;3.30;;;3.00;;
1685;SDS011;840;47.980;7.830;2023-01-28T11:23:57;3.63;;;3.33;;
1685;SDS011;840;47.980;7.830;2023-01-28T11:26:27;4.30;;;3.57;;
1685;SDS011;840;47.980;7.830;2023-01-28T11:29:17;3.77;;;3.40;;
1685;SDS011;840;47.980;7.830;2023-01-28T11:31:54;3.17;;;2.87;;
1685;SDS011;840;47.980;7.830;2023-01-28T11:34:25;3.47;;;2.97;;
1685;SDS011;840;47.980;7.830;2023-01-28T11:37:00;4.63;;;3.83;;
1685;SDS011;840;47.980;7.830;2023-01-28T11:39:38;2.77;;;2.40;;
1685;SDS011;840;47.980;7.830;2023-01-28T11:42:11;2.87;;;2.67;;
1685;SDS011;840;47.980;7.830;2023-01-28T11:44:54;4.20;;;3.10;;
1685;SDS011;840;47.980;7.830;2023-01-28T11:47:31;3.67;;;3.33;;
1685;SDS011;840;47.980;7.830;2023-01-28T11:50:14;3.27;;;2.97;;
1685;SDS011;840;47.980;7.830;2023-01-28T11:56:11;3.93;;;3.53;;
1685;SDS011;840;47.980;7.830;2023-01-28T11:59:07;3.30;;;3.00;;
1685;SDS011;840;47.980;7.830;2023-01-28T12:01:51;4.70;;;3.80;;
1685;SDS011;840;47.980;7.830;2023-01-28T12:04:41;4.50;;;3.27;;
1685;SDS011;840;47.980;7.830;2023-01-28T12:07:51;3.30;;;3.00;;
1685;SDS011;840;47.980;7.830;2023-01-28T12:10:26;4.80;;;3.80;;
1685;SDS011;840;47.980;7.830;2023-01-28T12:13:05;3.73;;;3.10;;
1685;SDS011;840;47.980;7.830;2023-01-28T12:16:07;3.60;;;3.30;;
1685;SDS011;840;47.980;7.830;2023-01-28T12:22:29;5.03;;;2.83;;
1685;SDS011;840;47.980;7.830;2023-01-28T12:25:21;3.80;;;2.90;;
1685;SDS011;840;47.980;7.830;2023-01-28T12:28:07;4.30;;;3.37;;
1685;SDS011;840;47.980;7.830;2023-01-28T12:31:03;4.00;;;3.43;;
1685;SDS011;840;47.980;7.830;2023-01-28T12:33:57;3.73;;;3.13;;
1685;SDS011;840;47.980;7.830;2023-01-28T12:36:46;4.60;;;3.63;;
1685;SDS011;840;47.980;7.830;2023-01-28T12:39:28;4.57;;;3.30;;
1685;SDS011;840;47.980;7.830;2023-01-28T12:42:08;3.83;;;3.53;;
1685;SDS011;840;47.980;7.830;2023-01-28T12:44:48;4.37;;;3.97;;
1685;SDS011;840;47.980;7.830;2023-01-28T12:47:20;4.73;;;4.33;;
1685;SDS011;840;47.980;7.830;2023-01-28T12:50:00;6.10;;;3.90;;
1685;SDS011;840;47.980;7.830;2023-01-28T12:52:37;5.07;;;3.90;;
1685;SDS011;840;47.980;7.830;2023-01-28T12:55:12;4.17;;;3.60;;
1685;SDS011;840;47.980;7.830;2023-01-28T12:57:43;4.03;;;3.73;;
1685;SDS011;840;47.980;7.830;2023-01-28T13:00:15;5.40;;;4.27;;
1685;SDS011;840;47.980;7.830;2023-01-28T13:02:52;4.77;;;4.33;;
1685;SDS011;840;47.980;7.830;2023-01-28T13:05:35;4.30;;;3.90;;
1685;SDS011;840;47.980;7.830;2023-01-28T13:08:16;4.67;;;4.20;;
1685;SDS011;840;47.980;7.830;2023-01-28T13:10:53;5.80;;;3.87;;
1685;SDS011;840;47.980;7.830;2023-01-28T13:13:24;5.90;;;4.70;;
1685;SDS011;840;47.980;7.830;2023-01-28T13:15:59;5.63;;;4.37;;
1685;SDS011;840;47.980;7.830;2023-01-28T13:18:52;4.50;;;4.10;;
1685;SDS011;840;47.980;7.830;2023-01-28T13:21:31;5.03;;;4.55;;
1685;SDS011;840;47.980;7.830;2023-01-28T13:27:08;5.30;;;4.80;;
1685;SDS011;840;47.980;7.830;2023-01-28T13:29:40;5.07;;;4.23;;
1685;SDS011;840;47.980;7.830;2023-01-28T13:32:27;4.37;;;4.07;;
1685;SDS011;840;47.980;7.830;2023-01-28T13:34:57;4.43;;;4.13;;
1685;SDS011;840;47.980;7.830;2023-01-28T13:37:35;5.93;;;5.33;;
1685;SDS011;840;47.980;7.830;2023-01-28T13:40:07;4.17;;;3.53;;
1685;SDS011;840;47.980;7.830;2023-01-28T13:42:58;11.40;;;4.53;;
1685;SDS011;840;47.980;7.830;2023-01-28T13:45:29;4.87;;;3.87;;
1685;SDS011;840;47.980;7.830;2023-01-28T13:48:00;3.60;;;3.33;;
1685;SDS011;840;47.980;7.830;2023-01-28T13:50:41;3.77;;;3.43;;
1685;SDS011;840;47.980;7.830;2023-01-28T13:53:15;4.47;;;4.07;;
1685;SDS011;840;47.980;7.830;2023-01-28T13:55:47;5.67;;;3.80;;
1685;SDS011;840;47.980;7.830;2023-01-28T13:58:39;4.47;;;4.00;;
1685;SDS011;840;47.980;7.830;2023-01-28T14:04:49;4.47;;;3.30;;
1685;SDS011;840;47.980;7.830;2023-01-28T14:07:33;3.87;;;3.57;;
1685;SDS011;840;47.980;7.830;2023-01-28T14:10:40;4.73;;;3.80;;
1685;SDS011;840;47.980;7.830;2023-01-28T14:13:28;4.80;;;3.40;;
1685;SDS011;840;47.980;7.830;2023-01-28T14:16:39;4.20;;;3.70;;
1685;SDS011;840;47.980;7.830;2023-01-28T14:19:23;6.20;;;4.40;;
1685;SDS011;840;47.980;7.830;2023-01-28T14:21:55;4.80;;;4.40;;
1685;SDS011;840;47.980;7.830;2023-01-28T14:24:26;4.20;;;3.80;;
1685;SDS011;840;47.980;7.830;2023-01-28T14:27:03;5.93;;;4.87;;
1685;SDS011;840;47.980;7.830;2023-01-28T14:29:40;5.47;;;4.10;;
1685;SDS011;840;47.980;7.830;2023-01-28T14:32:24;3.83;;;3.53;;
1685;SDS011;840;47.980;7.830;2023-01-28T14:34:59;5.77;;;4.00;;
1685;SDS011;840;47.980;7.830;2023-01-28T14:37:33;7.07;;;4.70;;
1685;SDS011;840;47.980;7.830;2023-01-28T14:40:01;5.07;;;4.37;;
1685;SDS011;840;47.980;7.830;2023-01-28T14:42:35;5.33;;;4.50;;
1685;SDS011;840;47.980;7.830;2023-01-28T14:45:07;5.60;;;4.00;;
1685;SDS011;840;47.980;7.830;2023-01-28T14:48:02;4.03;;;3.63;;
1685;SDS011;840;47.980;7.830;2023-01-28T14:50:44;4.23;;;3.83;;
1685;SDS011;840;47.980;7.830;2023-01-28T14:53:46;3.60;;;3.30;;
1685;SDS011;840;47.980;7.830;2023-01-28T14:56:35;4.37;;;4.00;;
1685;SDS011;840;47.980;7.830;2023-01-28T14:59:16;3.20;;;2.90;;
1685;SDS011;840;47.980;7.830;2023-01-28T15:01:46;5.20;;;3.73;;
1685;SDS011;840;47.980;7.830;2023-01-28T15:04:25;4.73;;;3.83;;
1685;SDS011;840;47.980;7.830;2023-01-28T15:06:54;3.97;;;3.57;;
1685;SDS011;840;47.980;7.830;2023-01-28T15:09:21;4.37;;;4.03;;
1685;SDS011;840;47.980;7.830;2023-01-28T15:11:49;4.63;;;4.18;;
1685;SDS011;840;47.980;7.830;2023-01-28T15:14:21;3.90;;;3.60;;
1685;SDS011;840;47.980;7.830;2023-01-28T15:16:53;5.60;;;4.17;;
1685;SDS011;840;47.980;7.830;2023-01-28T15:19:23;5.30;;;4.00;;
1685;SDS011;840;47.980;7.830;2023-01-28T15:21:54;6.37;;;4.07;;
1685;SDS011;840;47.980;7.830;2023-01-28T15:24:23;6.30;;;4.60;;
1685;SDS011;840;47.980;7.830;2023-01-28T15:26:50;5.33;;;3.63;;
1685;SDS011;840;47.980;7.830;2023-01-28T15:29:24;5.70;;;4.40;;
1685;SDS011;840;47.980;7.830;2023-01-28T15:31:56;4.07;;;3.70;;
1685;SDS011;840;47.980;7.830;2023-01-28T15:34:24;4.70;;;4.20;;
1685;SDS011;840;47.980;7.830;2023-01-28T15:36:55;4.10;;;3.80;;
1685;SDS011;840;47.980;7.830;2023-01-28T15:39:23;4.23;;;3.83;;
1685;SDS011;840;47.980;7.830;2023-01-28T15:41:52;5.23;;;4.23;;
1685;SDS011;840;47.980;7.830;2023-01-28T15:44:23;4.77;;;4.07;;
1685;SDS011;840;47.980;7.830;2023-01-28T15:46:55;4.77;;;4.37;;
1685;SDS011;840;47.980;7.830;2023-01-28T15:49:22;5.70;;;3.80;;
1685;SDS011;840;47.980;7.830;2023-01-28T15:51:58;6.90;;;4.20;;
1685;SDS011;840;47.980;7.830;2023-01-28T15:54:27;4.37;;;3.97;;
1685;SDS011;840;47.980;7.830;2023-01-28T15:56:56;4.37;;;3.87;;
1685;SDS011;840;47.980;7.830;2023-01-28T15:59:35;4.40;;;3.23;;
1685;SDS011;840;47.980;7.830;2023-01-28T16:02:14;4.50;;;4.10;;
1685;SDS011;840;47.980;7.830;2023-01-28T16:04:54;4.87;;;4.47;;
1685;SDS011;840;47.980;7.830;2023-01-28T16:07:24;4.33;;;3.93;;
1685;SDS011;840;47.980;7.830;2023-01-28T16:09:52;4.60;;;4.20;;
1685;SDS011;840;47.980;7.830;2023-01-28T16:12:21;5.87;;;4.40;;
1685;SDS011;840;47.980;7.830;2023-01-28T16:14:51;5.90;;;4.80;;
1685;SDS011;840;47.980;7.830;2023-01-28T16:17:21;5.03;;;4.53;;
1685;SDS011;840;47.980;7.830;2023-01-28T16:19:55;4.83;;;4.10;;
1685;SDS011;840;47.980;7.830;2023-01-28T16:22:31;4.50;;;3.73;;
1685;SDS011;840;47.980;7.830;2023-01-28T16:25:21;4.87;;;4.33;;
1685;SDS011;840;47.980;7.830;2023-01-28T16:27:54;5.97;;;4.50;;
1685;SDS011;840;47.980;7.830;2023-01-28T16:30:22;6.13;;;4.47;;
1685;SDS011;840;47.980;7.830;2023-01-28T16:32:50;4.80;;;3.97;;
1685;SDS011;840;47.980;7.830;2023-01-28T16:35:20;7.33;;;4.17;;
1685;SDS011;840;47.980;7.830;2023-01-28T16:37:50;5.23;;;4.57;;
1685;SDS011;840;47.980;7.830;2023-01-28T16:40:18;4.33;;;3.90;;
1685;SDS011;840;47.980;7.830;2023-01-28T16:42:47;4.33;;;4.00;;
1685;SDS011;840;47.980;7.830;2023-01-28T16:45:25;3.67;;;3.37;;
1685;SDS011;840;47.980;7.830;2023-01-28T16:47:53;4.90;;;4.20;;
1685;SDS011;840;47.980;7.830;2023-01-28T16:50:21;4.57;;;4.13;;
1685;SDS011;840;47.980;7.830;2023-01-28T16:52:50;6.83;;;5.00;;
1685;SDS011;840;47.980;7.830;2023-01-28T16:55:20;7.10;;;5.80;;
1685;SDS011;840;47.980;7.830;2023-01-28T16:57:51;7.40;;;6.70;;
1685;SDS011;840;47.980;7.830;2023-01-28T17:00:22;8.43;;;6.70;;
1685;SDS011;840;47.980;7.830;2023-01-28T17:02:51;7.17;;;6.47;;
1685;SDS011;840;47.980;7.830;2023-01-28T17:05:19;8.30;;;6.03;;
1685;SDS011;840;47.980;7.830;2023-01-28T17:07:47;9.37;;;6.97;;
1685;SDS011;840;47.980;7.830;2023-01-28T17:10:20;8.17;;;5.90;;
1685;SDS011;840;47.980;7.830;2023-01-28T17:12:47;8.50;;;6.13;;
1685;SDS011;840;47.980;7.830;2023-01-28T17:15:14;9.50;;;7.00;;
1685;SDS011;840;47.980;7.830;2023-01-28T17:17:42;11.27;;;8.97;;
1685;SDS011;840;47.980;7.830;2023-01-28T17:20:09;7.90;;;7.10;;
1685;SDS011;840;47.980;7.830;2023-01-28T17:22:37;10.20;;;6.90;;
1685;SDS011;840;47.980;7.830;2023-01-28T17:25:07;8.80;;;6.50;;
1685;SDS011;840;47.980;7.830;2023-01-28T17:27:36;8.17;;;6.67;;
1685;SDS011;840;47.980;7.830;2023-01-28T17:30:04;12.90;;;6.93;;
1685;SDS011;840;47.980;7.830;2023-01-28T17:32:32;12.83;;;8.50;;
1685;SDS011;840;47.980;7.830;2023-01-28T17:34:59;12.27;;;8.67;;
1685;SDS011;840;47.980;7.830;2023-01-28T17:37:26;11.80;;;7.90;;
1685;SDS011;840;47.980;7.830;2023-01-28T17:39:53;8.07;;;6.40;;
1685;SDS011;840;47.980;7.830;2023-01-28T17:42:23;11.20;;;8.40;;
1685;SDS011;840;47.980;7.830;2023-01-28T17:44:52;10.43;;;8.80;;
1685;SDS011;840;47.980;7.830;2023-01-28T17:47:21;10.60;;;7.77;;